createdAt,value
2023-04-18T00:01:45.802Z,100277.72
2023-04-18T00:04:13.972Z,100267.41
2023-04-18T00:06:41.204Z,100273.56
2023-04-18T00:09:08.063Z,100269.56
2023-04-18T00:11:35.146Z,100278.41
2023-04-18T00:14:03.381Z,100282.88
2023-04-18T00:16:30.634Z,100262.63
2023-04-18T00:18:57.541Z,100276.91
2023-04-18T00:21:25.766Z,100288.03
2023-04-18T00:23:52.705Z,100286.06
2023-04-18T00:26:19.648Z,100286.41
2023-04-18T00:28:48.133Z,100271.44
2023-04-18T00:31:14.919Z,100288.38
2023-04-18T00:33:41.745Z,100286.06
2023-04-18T00:36:08.871Z,100272.78
2023-04-18T00:38:35.998Z,100273.47
2023-04-18T00:41:02.809Z,100282.06
2023-04-18T00:43:29.552Z,100281.91
2023-04-18T00:45:57.235Z,100283.91
2023-04-18T00:48:24.897Z,100271.78
2023-04-18T00:50:54.223Z,100278.09
2023-04-18T00:53:21.199Z,100272.94
2023-04-18T00:55:48.571Z,100272.78
2023-04-18T00:58:15.621Z,100270.47
2023-04-18T01:00:43.027Z,100269.63
2023-04-18T01:03:14.498Z,100269.47
2023-04-18T01:05:41.530Z,100270.13
2023-04-18T01:08:08.496Z,100273.28
2023-04-18T01:10:36.011Z,100274.44
2023-04-18T01:13:18.916Z,100268.16
2023-04-18T01:15:48.048Z,100258.66
2023-04-18T01:18:18.415Z,100269.13
2023-04-18T01:20:48.069Z,100268.31
2023-04-18T01:23:16.582Z,100264.00
2023-04-18T01:25:44.200Z,100267.31
2023-04-18T01:28:13.832Z,100272.78
2023-04-18T01:30:40.946Z,100269.81
2023-04-18T01:33:07.678Z,100271.78
2023-04-18T01:35:34.593Z,100272.66
2023-04-18T01:38:01.475Z,100274.97
2023-04-18T01:40:29.934Z,100257.16
2023-04-18T01:42:56.728Z,100263.31
2023-04-18T01:45:23.767Z,100269.66
2023-04-18T01:47:50.643Z,100266.97
2023-04-18T01:50:17.388Z,100261.66
2023-04-18T01:52:44.144Z,100271.97
2023-04-18T01:55:11.096Z,100270.13
2023-04-18T01:57:38.113Z,100262.66
2023-04-18T02:00:06.494Z,100267.97
2023-04-18T02:02:41.350Z,100266.13
2023-04-18T02:05:08.923Z,100271.09
2023-04-18T02:07:38.611Z,100262.13
2023-04-18T02:10:06.223Z,100263.66
2023-04-18T02:12:34.331Z,100269.31
2023-04-18T02:15:01.478Z,100265.16
2023-04-18T02:17:29.186Z,100266.97
2023-04-18T02:19:56.019Z,100263.81
2023-04-18T02:22:22.946Z,100264.31
2023-04-18T02:24:49.772Z,100275.13
2023-04-18T02:27:16.740Z,100260.81
2023-04-18T02:29:43.540Z,100261.84
2023-04-18T02:32:10.572Z,100268.97
2023-04-18T02:34:37.694Z,100270.63
2023-04-18T02:37:04.765Z,100263.97
2023-04-18T02:39:32.505Z,100271.63
2023-04-18T02:41:59.457Z,100272.13
2023-04-18T02:44:26.277Z,100276.63
2023-04-18T02:46:53.090Z,100273.81
2023-04-18T02:49:20.285Z,100285.25
2023-04-18T02:51:47.534Z,100277.44
2023-04-18T02:54:15.566Z,100286.75
2023-04-18T02:56:54.853Z,100283.59
2023-04-18T02:59:25.468Z,100275.94
2023-04-18T03:02:12.622Z,100284.59
2023-04-18T03:04:46.837Z,100294.41
2023-04-18T03:07:13.899Z,100291.09
2023-04-18T03:09:41.678Z,100286.25
2023-04-18T03:12:19.233Z,100293.56
2023-04-18T03:14:46.472Z,100289.41
2023-04-18T03:17:14.330Z,100294.06
2023-04-18T03:19:46.561Z,100291.41
2023-04-18T03:22:16.381Z,100283.59
2023-04-18T03:24:52.722Z,100292.06
2023-04-18T03:27:21.011Z,100289.06
2023-04-18T03:29:48.244Z,100291.56
2023-04-18T03:32:15.356Z,100283.59
2023-04-18T03:34:42.110Z,100294.09
2023-04-18T03:37:09.985Z,100285.44
2023-04-18T03:39:42.823Z,100292.88
2023-04-18T03:42:09.611Z,100288.59
2023-04-18T03:44:36.359Z,100289.06
2023-04-18T03:47:03.937Z,100291.56
2023-04-18T03:49:32.776Z,100294.91
2023-04-18T03:51:59.747Z,100293.06
2023-04-18T03:54:26.462Z,100296.06
2023-04-18T03:56:53.279Z,100297.03
2023-04-18T03:59:20.840Z,100294.09
2023-04-18T04:01:50.101Z,100305.53
2023-04-18T04:04:18.219Z,100299.72
2023-04-18T04:06:45.524Z,100304.53
2023-04-18T04:09:12.260Z,100309.88
2023-04-18T04:11:39.830Z,100305.69
2023-04-18T04:14:09.243Z,100325.47
2023-04-18T04:16:40.511Z,100320.66
2023-04-18T04:19:07.771Z,100325.13
2023-04-18T04:21:41.060Z,100322.47
2023-04-18T04:24:11.599Z,100329.97
2023-04-18T04:26:43.388Z,100328.47
2023-04-18T04:29:17.641Z,100344.25
2023-04-18T04:31:46.566Z,100323.00
2023-04-18T04:34:18.052Z,100321.66
2023-04-18T04:36:45.462Z,100329.28
2023-04-18T04:39:13.902Z,100325.13
2023-04-18T04:42:01.383Z,100328.94
2023-04-18T04:44:31.678Z,100328.28
2023-04-18T04:46:59.411Z,100336.94
2023-04-18T04:49:32.114Z,100335.94
2023-04-18T04:52:00.715Z,100341.94
2023-04-18T04:54:28.730Z,100348.25
2023-04-18T04:56:55.466Z,100342.75
2023-04-18T04:59:22.209Z,100342.25
2023-04-18T05:01:49.566Z,100347.09
2023-04-18T05:04:17.485Z,100354.53
2023-04-18T05:06:46.192Z,100349.91
2023-04-18T05:09:13.238Z,100363.69
2023-04-18T05:11:39.970Z,100361.53
2023-04-18T05:14:06.688Z,100360.84
2023-04-18T05:16:33.585Z,100358.34
2023-04-18T05:19:00.751Z,100371.00
2023-04-18T05:21:28.754Z,100367.19
2023-04-18T05:23:56.353Z,100368.53
2023-04-18T05:26:23.410Z,100369.69
2023-04-18T05:28:50.666Z,100381.47
2023-04-18T05:31:17.710Z,100373.97
2023-04-18T05:33:44.394Z,100367.50
2023-04-18T05:36:11.267Z,100377.31
2023-04-18T05:38:38.125Z,100371.50
2023-04-18T05:41:04.938Z,100380.31
2023-04-18T05:43:31.737Z,100384.47
2023-04-18T05:45:58.571Z,100381.13
2023-04-18T05:48:25.356Z,100384.47
2023-04-18T05:50:52.154Z,100386.09
2023-04-18T05:53:18.901Z,100378.44
2023-04-18T05:55:46.620Z,100392.59
2023-04-18T05:58:13.396Z,100391.59
2023-04-18T06:00:40.121Z,100395.09
2023-04-18T06:03:09.275Z,100390.59
2023-04-18T06:05:37.823Z,100400.72
2023-04-18T06:08:08.261Z,100394.25
2023-04-18T06:10:36.950Z,100395.09
2023-04-18T06:13:05.153Z,100401.75
2023-04-18T06:15:31.983Z,100401.72
2023-04-18T06:17:58.792Z,100400.09
2023-04-18T06:20:25.948Z,100407.06
2023-04-18T06:22:52.721Z,100405.56
2023-04-18T06:25:19.679Z,100401.44
2023-04-18T06:27:46.566Z,100409.41
2023-04-18T06:30:14.474Z,100409.41
2023-04-18T06:32:41.388Z,100410.06
2023-04-18T06:35:08.467Z,100409.06
2023-04-18T06:37:35.336Z,100416.69
2023-04-18T06:40:02.107Z,100415.88
2023-04-18T06:42:28.877Z,100421.03
2023-04-18T06:44:55.927Z,100420.03
2023-04-18T06:47:23.001Z,100415.03
2023-04-18T06:49:50.217Z,100411.19
2023-04-18T06:52:16.880Z,100421.00
2023-04-18T06:54:43.619Z,100425.66
2023-04-18T06:57:10.796Z,100428.50
2023-04-18T06:59:37.622Z,100434.34
2023-04-18T07:02:04.479Z,100433.38
2023-04-18T07:04:31.410Z,100430.84
2023-04-18T07:06:58.140Z,100423.69
2023-04-18T07:09:24.872Z,100432.34
2023-04-18T07:11:52.691Z,100435.50
2023-04-18T07:14:23.251Z,100436.16
2023-04-18T07:16:50.622Z,100434.00
2023-04-18T07:19:17.664Z,100439.69
2023-04-18T07:21:46.009Z,100442.50
2023-04-18T07:24:13.294Z,100437.53
2023-04-18T07:26:40.949Z,100436.72
2023-04-18T07:29:08.110Z,100441.06
2023-04-18T07:31:35.071Z,100431.88
2023-04-18T07:34:02.029Z,100437.34
2023-04-18T07:36:28.839Z,100450.81
2023-04-18T07:38:55.616Z,100453.66
2023-04-18T07:41:22.526Z,100454.16
2023-04-18T07:43:49.281Z,100461.63
2023-04-18T07:46:16.119Z,100452.47
2023-04-18T07:48:43.032Z,100461.78
2023-04-18T07:51:09.737Z,100457.78
2023-04-18T07:53:36.741Z,100466.59
2023-04-18T07:56:03.507Z,100462.59
2023-04-18T07:58:30.190Z,100469.78
2023-04-18T08:00:57.007Z,100465.78
2023-04-18T08:03:23.897Z,100474.94
2023-04-18T08:05:52.081Z,100476.78
2023-04-18T08:08:19.956Z,100476.97
2023-04-18T08:10:46.984Z,100465.63
2023-04-18T08:13:13.751Z,100485.41
2023-04-18T08:15:41.167Z,100482.91
2023-04-18T08:18:07.961Z,100485.41
2023-04-18T08:20:37.164Z,100480.59
2023-04-18T08:23:08.709Z,100489.56
2023-04-18T08:25:36.904Z,100477.25
2023-04-18T08:28:04.262Z,100490.09
2023-04-18T08:30:31.614Z,100486.56
2023-04-18T08:33:00.328Z,100495.56
2023-04-18T08:35:27.605Z,100494.41
2023-04-18T08:37:54.569Z,100503.69
2023-04-18T08:40:21.404Z,100496.06
2023-04-18T08:42:49.234Z,100493.06
2023-04-18T08:45:16.279Z,100489.38
2023-04-18T08:47:43.117Z,100498.19
2023-04-18T08:50:10.776Z,100482.53
2023-04-18T08:52:39.937Z,100494.53
2023-04-18T08:55:07.425Z,100506.19
2023-04-18T08:57:35.830Z,100501.69
2023-04-18T09:00:05.632Z,100500.69
2023-04-18T09:02:45.235Z,100500.84
2023-04-18T09:05:21.680Z,100520.09
2023-04-18T09:07:50.541Z,100513.44
2023-04-18T09:10:32.920Z,100515.31
2023-04-18T09:13:03.396Z,100511.97
2023-04-18T09:15:31.086Z,100517.13
2023-04-18T09:18:01.713Z,100507.53
2023-04-18T09:20:41.519Z,100526.63
2023-04-18T09:23:14.589Z,100519.47
2023-04-18T09:25:44.565Z,100522.97
2023-04-18T09:28:28.156Z,100518.34
2023-04-18T09:30:56.991Z,100517.69
2023-04-18T09:33:33.838Z,100521.84
2023-04-18T09:36:22.200Z,100513.34
2023-04-18T09:38:51.655Z,100521.84
2023-04-18T09:41:21.545Z,100519.69
2023-04-18T09:43:49.321Z,100512.88
2023-04-18T09:46:17.737Z,100525.72
2023-04-18T09:48:44.733Z,100526.69
2023-04-18T09:51:16.770Z,100521.53
2023-04-18T09:53:45.196Z,100521.34
2023-04-18T09:56:23.676Z,100519.69
2023-04-18T09:58:56.522Z,100509.91
2023-04-18T10:01:30.884Z,100512.22
2023-04-18T10:04:01.574Z,100522.91
2023-04-18T10:06:28.893Z,100521.59
2023-04-18T10:08:56.280Z,100518.75
2023-04-18T10:11:24.360Z,100520.56
2023-04-18T10:13:55.826Z,100521.59
2023-04-18T10:16:23.250Z,100522.56
2023-04-18T10:18:51.179Z,100529.88
2023-04-18T10:21:18.029Z,100523.41
2023-04-18T10:23:48.743Z,100531.72
2023-04-18T10:26:16.273Z,100532.22
2023-04-18T10:28:59.045Z,100525.59
2023-04-18T10:31:27.831Z,100520.41
2023-04-18T10:36:28.679Z,100525.72
2023-04-18T10:39:00.588Z,100523.75
2023-04-18T10:41:28.242Z,100521.91
2023-04-18T10:44:10.011Z,100523.59
2023-04-18T10:46:38.600Z,100519.91
2023-04-18T10:49:27.295Z,100525.22
2023-04-18T10:52:00.051Z,100519.06
2023-04-18T10:54:32.539Z,100524.22
2023-04-18T10:57:04.644Z,100523.09
2023-04-18T10:59:35.058Z,100511.44
2023-04-18T11:02:26.240Z,100505.41
2023-04-18T11:04:55.068Z,100512.41
2023-04-18T11:07:41.845Z,100516.25
2023-04-18T11:10:09.794Z,100521.56
2023-04-18T11:12:41.259Z,100510.56
2023-04-18T11:15:12.382Z,100520.75
2023-04-18T11:17:40.110Z,100512.41
2023-04-18T11:20:15.109Z,100518.25
2023-04-18T11:22:49.381Z,100512.75
2023-04-18T11:25:17.486Z,100510.91
2023-04-18T11:27:46.206Z,100502.75
2023-04-18T11:30:14.504Z,100507.41
2023-04-18T11:32:41.712Z,100514.25
2023-04-18T11:35:11.044Z,100511.56
2023-04-18T11:37:39.403Z,100513.56
2023-04-18T11:40:09.108Z,100504.06
2023-04-18T11:42:37.652Z,100511.25
2023-04-18T11:45:08.892Z,100511.44
2023-04-18T11:47:35.943Z,100511.56
2023-04-18T11:50:05.219Z,100517.91
2023-04-18T11:52:33.583Z,100505.94
2023-04-18T11:55:24.778Z,100518.22
2023-04-18T11:57:56.653Z,100517.75
2023-04-18T12:00:35.271Z,100518.09
2023-04-18T12:03:04.798Z,100512.59
2023-04-18T12:05:33.678Z,100516.91
2023-04-18T12:08:11.972Z,100524.91
2023-04-18T12:10:49.067Z,100522.75
2023-04-18T12:13:16.109Z,100523.22
2023-04-18T12:15:44.894Z,100521.53
2023-04-18T12:18:13.684Z,100526.31
2023-04-18T12:20:50.424Z,100521.13
2023-04-18T12:23:34.393Z,100524.09
2023-04-18T12:26:07.113Z,100525.25
2023-04-18T12:28:35.022Z,100528.38
2023-04-18T12:31:03.143Z,100522.72
2023-04-18T12:33:30.573Z,100515.44
2023-04-18T12:35:57.458Z,100528.59
2023-04-18T12:38:24.384Z,100514.16
2023-04-18T12:40:52.443Z,100521.44
2023-04-18T12:43:19.681Z,100505.53
2023-04-18T12:45:46.987Z,100517.31
2023-04-18T12:48:14.028Z,100519.72
2023-04-18T12:50:40.769Z,100527.38
2023-04-18T12:53:07.974Z,100515.25
2023-04-18T12:55:34.700Z,100508.13
2023-04-18T12:58:01.485Z,100508.66
2023-04-18T13:00:31.257Z,100513.16
2023-04-18T13:02:58.582Z,100515.03
2023-04-18T13:05:29.273Z,100511.28
2023-04-18T13:08:15.216Z,100516.91
2023-04-18T13:10:43.765Z,100514.94
2023-04-18T13:13:10.530Z,100505.34
2023-04-18T13:15:37.362Z,100510.09
2023-04-18T13:18:06.518Z,100499.50
2023-04-18T13:20:34.393Z,100517.03
2023-04-18T13:23:02.937Z,100514.53
2023-04-18T13:25:30.033Z,100510.28
2023-04-18T13:27:58.578Z,100512.88
2023-04-18T13:30:25.663Z,100512.59
2023-04-18T13:32:52.519Z,100511.69
2023-04-18T13:35:19.314Z,100517.09
2023-04-18T13:37:46.333Z,100517.41
2023-04-18T13:40:13.723Z,100504.13
2023-04-18T13:42:40.547Z,100512.59
2023-04-18T13:45:07.781Z,100509.25
2023-04-18T13:47:34.899Z,100503.63
2023-04-18T13:50:01.808Z,100511.53
2023-04-18T13:52:28.720Z,100514.88
2023-04-18T13:54:55.576Z,100513.22
2023-04-18T13:57:23.188Z,100529.19
2023-04-18T13:59:49.957Z,100521.78
2023-04-18T14:02:16.901Z,100526.22
2023-04-18T14:04:43.960Z,100526.72
2023-04-18T14:07:10.983Z,100528.47
2023-04-18T14:09:37.911Z,100525.66
2023-04-18T14:12:04.943Z,100524.16
2023-04-18T14:14:31.652Z,100520.34
2023-04-18T14:16:58.416Z,100523.84
2023-04-18T14:19:26.767Z,100522.38
2023-04-18T14:21:53.474Z,100522.09
2023-04-18T14:24:20.402Z,100526.44
2023-04-18T14:26:47.990Z,100519.13
2023-04-18T14:29:14.923Z,100530.66
2023-04-18T14:31:42.165Z,100529.31
2023-04-18T14:34:09.817Z,100527.78
2023-04-18T14:36:36.992Z,100526.09
2023-04-18T14:39:04.754Z,100522.66
2023-04-18T14:41:31.652Z,100526.13
2023-04-18T14:43:58.348Z,100521.66
2023-04-18T14:46:27.179Z,100513.00
2023-04-18T14:48:54.457Z,100521.31
2023-04-18T14:51:21.202Z,100520.13
2023-04-18T14:53:47.854Z,100510.81
2023-04-18T14:56:16.030Z,100514.78
2023-04-18T14:58:43.927Z,100510.47
2023-04-18T15:01:10.658Z,100507.97
2023-04-18T15:03:37.509Z,100512.44
2023-04-18T15:06:04.565Z,100512.41
2023-04-18T15:08:32.906Z,100519.78
2023-04-18T15:10:59.817Z,100520.41
2023-04-18T15:13:26.782Z,100520.78
2023-04-18T15:15:55.025Z,100513.75
2023-04-18T15:18:21.840Z,100508.09
2023-04-18T15:20:48.688Z,100513.63
2023-04-18T15:23:15.918Z,100511.81
2023-04-18T15:25:44.782Z,100507.66
2023-04-18T15:28:13.434Z,100522.47
2023-04-18T15:30:40.230Z,100519.66
2023-04-18T15:33:07.284Z,100521.16
2023-04-18T15:35:34.047Z,100518.94
2023-04-18T15:38:01.142Z,100515.78
2023-04-18T15:40:27.921Z,100518.75
2023-04-18T15:42:56.100Z,100525.25
2023-04-18T15:45:22.979Z,100533.97
2023-04-18T15:47:49.749Z,100522.28
2023-04-18T15:50:16.702Z,100528.81
2023-04-18T15:52:44.067Z,100526.69
2023-04-18T15:55:13.049Z,100534.31
2023-04-18T15:57:40.712Z,100530.50
2023-04-18T16:00:19.788Z,100524.69
2023-04-18T16:02:47.087Z,100529.53
2023-04-18T16:05:15.413Z,100525.72
2023-04-18T16:07:42.855Z,100526.88
2023-04-18T16:10:10.674Z,100531.06
2023-04-18T16:12:38.530Z,100529.03
2023-04-18T16:15:06.956Z,100526.03
2023-04-18T16:17:34.111Z,100530.72
2023-04-18T16:20:00.822Z,100531.88
2023-04-18T16:22:27.648Z,100533.56
2023-04-18T16:24:54.351Z,100530.72
2023-04-18T16:27:21.314Z,100536.41
2023-04-18T16:29:48.036Z,100535.88
2023-04-18T16:32:15.119Z,100530.22
2023-04-18T16:34:41.806Z,100530.09
2023-04-18T16:37:08.521Z,100542.56
2023-04-18T16:39:35.419Z,100536.41
2023-04-18T16:42:03.528Z,100536.88
2023-04-18T16:44:30.808Z,100534.22
2023-04-18T16:46:57.618Z,100534.41
2023-04-18T16:49:24.424Z,100534.72
2023-04-18T16:51:51.286Z,100532.94
2023-04-18T16:54:18.044Z,100539.91
2023-04-18T16:56:44.871Z,100530.38
2023-04-18T16:59:11.794Z,100531.41
2023-04-18T17:01:38.628Z,100524.22
2023-04-18T17:04:05.941Z,100528.56
2023-04-18T17:06:32.890Z,100523.88
2023-04-18T17:08:59.666Z,100534.41
2023-04-18T17:11:26.681Z,100534.06
2023-04-18T17:13:53.672Z,100535.22
2023-04-18T17:16:20.630Z,100541.72
2023-04-18T17:18:47.411Z,100538.53
2023-04-18T17:21:14.256Z,100540.91
2023-04-18T17:23:42.573Z,100548.88
2023-04-18T17:26:09.865Z,100553.88
2023-04-18T17:28:36.967Z,100557.19
2023-04-18T17:31:04.323Z,100561.84
2023-04-18T17:33:31.558Z,100559.53
2023-04-18T17:35:58.915Z,100558.38
2023-04-18T17:38:25.705Z,100563.03
2023-04-18T17:40:59.964Z,100564.88
2023-04-18T17:43:27.125Z,100541.06
2023-04-18T17:45:54.154Z,100552.72
2023-04-18T17:48:21.277Z,100563.03
2023-04-18T17:50:48.023Z,100548.72
2023-04-18T17:53:14.817Z,100560.53
2023-04-18T17:55:41.557Z,100561.38
2023-04-18T17:58:08.828Z,100551.84
2023-04-18T18:00:35.722Z,100564.88
2023-04-18T18:03:03.187Z,100565.53
2023-04-18T18:05:30.538Z,100566.03
2023-04-18T18:07:57.701Z,100570.69
2023-04-18T18:10:25.027Z,100582.19
2023-04-18T18:12:51.818Z,100580.69
2023-04-18T18:15:19.428Z,100581.66
2023-04-18T18:17:51.033Z,100582.34
2023-04-18T18:20:18.318Z,100588.16
2023-04-18T18:22:45.070Z,100596.13
2023-04-18T18:25:12.040Z,100595.31
2023-04-18T18:27:39.143Z,100595.13
2023-04-18T18:30:06.937Z,100610.28
2023-04-18T18:32:33.657Z,100600.44
2023-04-18T18:35:00.511Z,100619.56
2023-04-18T18:37:27.521Z,100626.38
2023-04-18T18:39:56.377Z,100629.84
2023-04-18T18:42:23.508Z,100631.03
2023-04-18T18:44:50.571Z,100634.53
2023-04-18T18:47:20.332Z,100636.81
2023-04-18T18:49:48.708Z,100636.97
2023-04-18T18:52:15.998Z,100638.31
2023-04-18T18:54:42.856Z,100641.69
2023-04-18T18:57:09.666Z,100640.78
2023-04-18T18:59:36.335Z,100653.94
2023-04-18T19:02:03.316Z,100650.63
2023-04-18T19:04:30.227Z,100647.63
2023-04-18T19:06:56.996Z,100658.06
2023-04-18T19:09:23.689Z,100643.91
2023-04-18T19:11:51.198Z,100652.44
2023-04-18T19:14:17.854Z,100661.72
2023-04-18T19:16:44.691Z,100653.22
2023-04-18T19:19:11.775Z,100644.25
2023-04-18T19:21:39.817Z,100655.34
2023-04-18T19:24:06.772Z,100655.03
2023-04-18T19:26:33.505Z,100655.88
2023-04-18T19:29:00.176Z,100652.84
2023-04-18T19:31:26.944Z,100657.13
2023-04-18T19:33:53.731Z,100653.16
2023-04-18T19:36:22.504Z,100663.47
2023-04-18T19:38:49.294Z,100676.44
2023-04-18T19:41:16.028Z,100674.13
2023-04-18T19:43:42.761Z,100679.31
2023-04-18T19:46:09.580Z,100678.50
2023-04-18T19:48:36.434Z,100680.50
2023-04-18T19:51:04.678Z,100676.78
2023-04-18T19:53:31.657Z,100666.75
2023-04-18T19:55:58.420Z,100670.75
2023-04-18T19:58:44.746Z,100668.75
2023-04-18T20:01:13.004Z,100671.41
2023-04-18T20:03:40.607Z,100670.38
2023-04-18T20:06:08.185Z,100663.06
2023-04-18T20:08:36.643Z,100659.19
2023-04-18T20:11:10.894Z,100655.34
2023-04-18T20:13:38.289Z,100655.03
2023-04-18T20:16:05.974Z,100655.03
2023-04-18T20:18:34.113Z,100652.31
2023-04-18T20:21:00.818Z,100660.66
2023-04-18T20:23:27.615Z,100653.13
2023-04-18T20:25:54.375Z,100653.31
2023-04-18T20:28:21.470Z,100657.56
2023-04-18T20:30:48.368Z,100640.28
2023-04-18T20:33:15.300Z,100651.75
2023-04-18T20:35:42.277Z,100654.25
2023-04-18T20:38:11.152Z,100649.53
2023-04-18T20:40:39.719Z,100643.41
2023-04-18T20:43:10.032Z,100635.94
2023-04-18T20:45:43.014Z,100635.81
2023-04-18T20:48:10.358Z,100636.94
2023-04-18T20:50:37.132Z,100626.97
2023-04-18T20:53:04.086Z,100625.31
2023-04-18T20:55:31.131Z,100629.81
2023-04-18T20:57:58.683Z,100633.53
2023-04-18T21:00:25.595Z,100629.22
2023-04-18T21:02:52.407Z,100631.91
2023-04-18T21:05:19.218Z,100632.03
2023-04-18T21:07:45.986Z,100638.47
2023-04-18T21:10:13.069Z,100634.97
2023-04-18T21:12:39.779Z,100642.78
2023-04-18T21:15:06.999Z,100635.22
2023-04-18T21:17:33.834Z,100635.13
2023-04-18T21:20:00.867Z,100615.97
2023-04-18T21:22:27.568Z,100626.97
2023-04-18T21:24:54.396Z,100632.66
2023-04-18T21:27:21.105Z,100627.03
2023-04-18T21:29:48.026Z,100615.91
2023-04-18T21:32:14.690Z,100629.69
2023-04-18T21:34:41.627Z,100628.34
2023-04-18T21:37:08.477Z,100637.00
2023-04-18T21:39:35.374Z,100639.94
2023-04-18T21:42:02.081Z,100640.28
2023-04-18T21:44:28.870Z,100620.25
2023-04-18T21:46:56.763Z,100627.13
2023-04-18T21:49:23.520Z,100618.63
2023-04-18T21:51:50.292Z,100620.69
2023-04-18T21:54:17.200Z,100616.03
2023-04-18T21:56:44.062Z,100615.75
2023-04-18T21:59:10.814Z,100600.78
2023-04-18T22:01:38.475Z,100593.44
2023-04-18T22:04:06.204Z,100591.50
2023-04-18T22:06:33.403Z,100582.66
2023-04-18T22:09:01.106Z,100586.00
2023-04-18T22:11:28.614Z,100574.72
2023-04-18T22:13:58.099Z,100573.09
2023-04-18T22:16:25.025Z,100577.91
2023-04-18T22:18:52.022Z,100586.06
2023-04-18T22:21:18.783Z,100586.53
2023-04-18T22:23:45.736Z,100578.72
2023-04-18T22:26:12.555Z,100577.22
2023-04-18T22:28:39.447Z,100572.75
2023-04-18T22:31:06.279Z,100593.19
2023-04-18T22:33:33.026Z,100578.03
2023-04-18T22:35:59.788Z,100583.03
2023-04-18T22:38:26.567Z,100576.25
2023-04-18T22:40:53.308Z,100597.19
2023-04-18T22:43:23.513Z,100581.09
2023-04-18T22:45:51.052Z,100554.59
2023-04-18T22:48:17.967Z,100577.53
2023-04-18T22:50:44.708Z,100584.16
2023-04-18T22:53:11.740Z,100600.81
2023-04-18T22:55:40.364Z,100597.84
2023-04-18T22:58:07.826Z,100587.53
2023-04-18T23:00:34.817Z,100577.34
2023-04-18T23:03:01.980Z,100588.81
2023-04-18T23:05:29.360Z,100586.66
2023-04-18T23:07:57.320Z,100590.78
2023-04-18T23:10:25.927Z,100600.78
2023-04-18T23:12:52.755Z,100602.44
2023-04-18T23:15:22.817Z,100607.72
2023-04-18T23:17:52.993Z,100615.03
2023-04-18T23:20:20.150Z,100617.38
2023-04-18T23:22:49.354Z,100623.03
2023-04-18T23:25:16.413Z,100604.50
2023-04-18T23:27:43.320Z,100622.84
2023-04-18T23:30:10.463Z,100619.75
2023-04-18T23:32:37.175Z,100607.44
2023-04-18T23:35:06.072Z,100604.72
2023-04-18T23:37:33.057Z,100608.69
2023-04-18T23:40:00.089Z,100598.00
2023-04-18T23:42:27.407Z,100596.88
2023-04-18T23:44:54.679Z,100592.53
2023-04-18T23:47:22.043Z,100594.72
2023-04-18T23:49:48.890Z,100598.22
2023-04-18T23:52:15.662Z,100587.91
2023-04-18T23:54:42.420Z,100592.22
2023-04-18T23:57:09.116Z,100579.09
2023-04-18T23:59:35.826Z,100577.94
